sensor_id;sensor_type;location;lat;lon;timestamp;temperature;humidity
38726;DHT22;24474;48.906;8.808;2023-03-14T00:01:22;10.20;99.90
38726;DHT22;24474;48.906;8.808;2023-03-14T00:03:52;10.20;99.90
38726;DHT22;24474;48.906;8.808;2023-03-14T00:06:22;10.20;99.90
38726;DHT22;24474;48.906;8.808;2023-03-14T00:08:49;10.20;99.90
38726;DHT22;24474;48.906;8.808;2023-03-14T00:11:19;10.20;99.90
38726;DHT22;24474;48.906;8.808;2023-03-14T00:13:50;10.10;99.90
38726;DHT22;24474;48.906;8.808;2023-03-14T00:16:19;10.10;99.90
38726;DHT22;24474;48.906;8.808;2023-03-14T00:18:46;10.10;99.90
38726;DHT22;24474;48.906;8.808;2023-03-14T00:21:13;10.10;99.90
38726;DHT22;24474;48.906;8.808;2023-03-14T00:23:41;10.10;99.90
38726;DHT22;24474;48.906;8.808;2023-03-14T00:26:17;10.10;99.90
38726;DHT22;24474;48.906;8.808;2023-03-14T00:28:44;10.10;99.90
38726;DHT22;24474;48.906;8.808;2023-03-14T00:31:14;10.10;99.90
38726;DHT22;24474;48.906;8.808;2023-03-14T00:33:45;10.10;99.90
38726;DHT22;24474;48.906;8.808;2023-03-14T00:36:16;10.00;99.90
38726;DHT22;24474;48.906;8.808;2023-03-14T00:38:44;10.00;99.90
38726;DHT22;24474;48.906;8.808;2023-03-14T00:41:13;10.00;99.90
38726;DHT22;24474;48.906;8.808;2023-03-14T00:43:41;9.90;99.90
38726;DHT22;24474;48.906;8.808;2023-03-14T00:46:09;10.00;99.90
38726;DHT22;24474;48.906;8.808;2023-03-14T00:48:36;10.00;99.90
38726;DHT22;24474;48.906;8.808;2023-03-14T00:51:03;10.00;99.90
38726;DHT22;24474;48.906;8.808;2023-03-14T00:53:30;10.00;99.90
38726;DHT22;24474;48.906;8.808;2023-03-14T00:56:01;10.00;99.90
38726;DHT22;24474;48.906;8.808;2023-03-14T00:58:28;10.00;99.90
38726;DHT22;24474;48.906;8.808;2023-03-14T01:00:56;10.00;99.90
38726;DHT22;24474;48.906;8.808;2023-03-14T01:03:23;10.00;99.90
38726;DHT22;24474;48.906;8.808;2023-03-14T01:05:50;10.00;99.90
38726;DHT22;24474;48.906;8.808;2023-03-14T01:08:17;10.00;99.90
38726;DHT22;24474;48.906;8.808;2023-03-14T01:10:43;10.00;99.90
38726;DHT22;24474;48.906;8.808;2023-03-14T01:13:13;10.00;99.90
38726;DHT22;24474;48.906;8.808;2023-03-14T01:15:39;10.00;99.90
38726;DHT22;24474;48.906;8.808;2023-03-14T01:18:06;10.00;99.90
38726;DHT22;24474;48.906;8.808;2023-03-14T01:20:33;10.00;99.90
38726;DHT22;24474;48.906;8.808;2023-03-14T01:22:58;10.10;99.90
38726;DHT22;24474;48.906;8.808;2023-03-14T01:25:25;10.10;99.90
38726;DHT22;24474;48.906;8.808;2023-03-14T01:27:52;10.10;99.90
38726;DHT22;24474;48.906;8.808;2023-03-14T01:30:18;10.10;99.90
38726;DHT22;24474;48.906;8.808;2023-03-14T01:32:45;10.00;99.90
38726;DHT22;24474;48.906;8.808;2023-03-14T01:35:12;10.00;99.90
38726;DHT22;24474;48.906;8.808;2023-03-14T01:37:39;10.00;99.90
38726;DHT22;24474;48.906;8.808;2023-03-14T01:40:06;10.00;99.90
38726;DHT22;24474;48.906;8.808;2023-03-14T01:42:33;10.00;99.90
38726;DHT22;24474;48.906;8.808;2023-03-14T01:45:01;10.00;99.90
38726;DHT22;24474;48.906;8.808;2023-03-14T01:47:28;10.00;99.90
38726;DHT22;24474;48.906;8.808;2023-03-14T01:50:08;10.00;99.90
38726;DHT22;24474;48.906;8.808;2023-03-14T01:52:56;10.00;99.90
38726;DHT22;24474;48.906;8.808;2023-03-14T01:55:23;10.00;99.90
38726;DHT22;24474;48.906;8.808;2023-03-14T01:57:57;9.90;99.90
38726;DHT22;24474;48.906;8.808;2023-03-14T02:00:25;10.00;99.90
38726;DHT22;24474;48.906;8.808;2023-03-14T02:02:55;9.90;99.90
38726;DHT22;24474;48.906;8.808;2023-03-14T02:05:26;9.90;99.90
38726;DHT22;24474;48.906;8.808;2023-03-14T02:07:56;9.90;99.90
38726;DHT22;24474;48.906;8.808;2023-03-14T02:10:31;9.90;99.90
38726;DHT22;24474;48.906;8.808;2023-03-14T02:13:00;9.90;99.90
38726;DHT22;24474;48.906;8.808;2023-03-14T02:15:28;9.90;99.90
38726;DHT22;24474;48.906;8.808;2023-03-14T02:17:57;9.90;99.90
38726;DHT22;24474;48.906;8.808;2023-03-14T02:23:13;9.90;99.90
38726;DHT22;24474;48.906;8.808;2023-03-14T02:28:31;9.90;99.90
38726;DHT22;24474;48.906;8.808;2023-03-14T02:30:57;9.90;99.90
38726;DHT22;24474;48.906;8.808;2023-03-14T02:33:24;9.80;99.90
38726;DHT22;24474;48.906;8.808;2023-03-14T02:35:59;9.90;99.90
38726;DHT22;24474;48.906;8.808;2023-03-14T02:38:33;9.80;99.90
38726;DHT22;24474;48.906;8.808;2023-03-14T02:41:02;9.80;99.90
38726;DHT22;24474;48.906;8.808;2023-03-14T02:43:29;9.80;99.90
38726;DHT22;24474;48.906;8.808;2023-03-14T02:45:56;9.80;99.90
38726;DHT22;24474;48.906;8.808;2023-03-14T02:48:29;9.70;99.90
38726;DHT22;24474;48.906;8.808;2023-03-14T02:50:59;9.70;99.90
38726;DHT22;24474;48.906;8.808;2023-03-14T02:53:29;9.70;99.90
38726;DHT22;24474;48.906;8.808;2023-03-14T02:55:56;9.70;99.90
38726;DHT22;24474;48.906;8.808;2023-03-14T02:58:22;9.70;99.90
38726;DHT22;24474;48.906;8.808;2023-03-14T03:00:49;9.70;99.90
38726;DHT22;24474;48.906;8.808;2023-03-14T03:03:15;9.70;99.90
38726;DHT22;24474;48.906;8.808;2023-03-14T03:05:43;9.70;99.90
38726;DHT22;24474;48.906;8.808;2023-03-14T03:08:10;9.70;99.90
38726;DHT22;24474;48.906;8.808;2023-03-14T03:10:37;9.60;99.90
38726;DHT22;24474;48.906;8.808;2023-03-14T03:13:03;9.60;99.90
38726;DHT22;24474;48.906;8.808;2023-03-14T03:15:31;9.60;99.90
38726;DHT22;24474;48.906;8.808;2023-03-14T03:17:58;9.60;99.90
38726;DHT22;24474;48.906;8.808;2023-03-14T03:20:25;9.60;99.90
38726;DHT22;24474;48.906;8.808;2023-03-14T03:22:52;9.60;99.90
38726;DHT22;24474;48.906;8.808;2023-03-14T03:25:17;9.50;99.90
38726;DHT22;24474;48.906;8.808;2023-03-14T03:27:44;9.60;99.90
38726;DHT22;24474;48.906;8.808;2023-03-14T03:30:11;9.50;99.90
38726;DHT22;24474;48.906;8.808;2023-03-14T03:32:38;9.50;99.90
38726;DHT22;24474;48.906;8.808;2023-03-14T03:35:05;9.50;99.90
38726;DHT22;24474;48.906;8.808;2023-03-14T03:37:33;9.50;99.90
38726;DHT22;24474;48.906;8.808;2023-03-14T03:40:01;9.50;99.90
38726;DHT22;24474;48.906;8.808;2023-03-14T03:42:27;9.40;99.90
38726;DHT22;24474;48.906;8.808;2023-03-14T03:44:55;9.40;99.90
38726;DHT22;24474;48.906;8.808;2023-03-14T03:47:22;9.40;99.90
38726;DHT22;24474;48.906;8.808;2023-03-14T03:49:49;9.40;99.90
38726;DHT22;24474;48.906;8.808;2023-03-14T03:52:25;9.40;99.90
38726;DHT22;24474;48.906;8.808;2023-03-14T03:54:51;9.40;99.90
38726;DHT22;24474;48.906;8.808;2023-03-14T03:57:19;9.30;99.90
38726;DHT22;24474;48.906;8.808;2023-03-14T03:59:45;9.40;99.90
38726;DHT22;24474;48.906;8.808;2023-03-14T04:02:13;9.40;99.90
38726;DHT22;24474;48.906;8.808;2023-03-14T04:04:40;9.40;99.90
38726;DHT22;24474;48.906;8.808;2023-03-14T04:07:06;9.40;99.90
38726;DHT22;24474;48.906;8.808;2023-03-14T04:09:33;9.40;99.90
38726;DHT22;24474;48.906;8.808;2023-03-14T04:12:00;9.40;99.90
38726;DHT22;24474;48.906;8.808;2023-03-14T04:14:27;9.30;99.90
38726;DHT22;24474;48.906;8.808;2023-03-14T04:16:52;9.30;99.90
38726;DHT22;24474;48.906;8.808;2023-03-14T04:19:20;9.30;99.90
38726;DHT22;24474;48.906;8.808;2023-03-14T04:21:45;9.30;99.90
38726;DHT22;24474;48.906;8.808;2023-03-14T04:24:12;9.30;99.90
38726;DHT22;24474;48.906;8.808;2023-03-14T04:26:43;9.30;99.90
38726;DHT22;24474;48.906;8.808;2023-03-14T04:29:10;9.30;99.90
38726;DHT22;24474;48.906;8.808;2023-03-14T04:31:35;9.30;99.90
38726;DHT22;24474;48.906;8.808;2023-03-14T04:34:01;9.30;99.90
38726;DHT22;24474;48.906;8.808;2023-03-14T04:36:28;9.20;99.90
38726;DHT22;24474;48.906;8.808;2023-03-14T04:38:55;9.20;99.90
38726;DHT22;24474;48.906;8.808;2023-03-14T04:41:21;9.20;99.90
38726;DHT22;24474;48.906;8.808;2023-03-14T04:43:46;9.20;99.90
38726;DHT22;24474;48.906;8.808;2023-03-14T04:46:13;9.20;99.90
38726;DHT22;24474;48.906;8.808;2023-03-14T04:48:38;9.20;99.90
38726;DHT22;24474;48.906;8.808;2023-03-14T04:51:05;9.20;99.90
38726;DHT22;24474;48.906;8.808;2023-03-14T04:53:32;9.20;99.90
38726;DHT22;24474;48.906;8.808;2023-03-14T04:56:02;9.20;99.90
38726;DHT22;24474;48.906;8.808;2023-03-14T04:58:29;9.20;99.90
38726;DHT22;24474;48.906;8.808;2023-03-14T05:01:04;9.20;99.90
38726;DHT22;24474;48.906;8.808;2023-03-14T05:03:33;9.20;99.90
38726;DHT22;24474;48.906;8.808;2023-03-14T05:06:04;9.20;99.90
38726;DHT22;24474;48.906;8.808;2023-03-14T05:08:31;9.20;99.90
38726;DHT22;24474;48.906;8.808;2023-03-14T05:10:57;9.20;99.90
38726;DHT22;24474;48.906;8.808;2023-03-14T05:13:25;9.20;99.90
38726;DHT22;24474;48.906;8.808;2023-03-14T05:15:50;9.10;99.90
38726;DHT22;24474;48.906;8.808;2023-03-14T05:18:19;9.20;99.90
38726;DHT22;24474;48.906;8.808;2023-03-14T05:20:45;9.10;99.90
38726;DHT22;24474;48.906;8.808;2023-03-14T05:23:12;9.10;99.90
38726;DHT22;24474;48.906;8.808;2023-03-14T05:25:42;9.10;99.90
38726;DHT22;24474;48.906;8.808;2023-03-14T05:28:09;9.10;99.90
38726;DHT22;24474;48.906;8.808;2023-03-14T05:30:36;9.10;99.90
38726;DHT22;24474;48.906;8.808;2023-03-14T05:33:02;9.10;99.90
38726;DHT22;24474;48.906;8.808;2023-03-14T05:35:30;9.10;99.90
38726;DHT22;24474;48.906;8.808;2023-03-14T05:37:57;9.20;99.90
38726;DHT22;24474;48.906;8.808;2023-03-14T05:40:24;9.10;99.90
38726;DHT22;24474;48.906;8.808;2023-03-14T05:42:51;9.20;99.90
38726;DHT22;24474;48.906;8.808;2023-03-14T05:45:18;9.20;99.90
38726;DHT22;24474;48.906;8.808;2023-03-14T05:47:43;9.20;99.90
38726;DHT22;24474;48.906;8.808;2023-03-14T05:50:10;9.20;99.90
38726;DHT22;24474;48.906;8.808;2023-03-14T05:52:37;9.20;99.90
38726;DHT22;24474;48.906;8.808;2023-03-14T05:55:03;9.20;99.90
38726;DHT22;24474;48.906;8.808;2023-03-14T05:57:30;9.20;99.90
38726;DHT22;24474;48.906;8.808;2023-03-14T05:59:55;9.20;99.90
38726;DHT22;24474;48.906;8.808;2023-03-14T06:02:22;9.10;99.90
38726;DHT22;24474;48.906;8.808;2023-03-14T06:04:49;9.10;99.90
38726;DHT22;24474;48.906;8.808;2023-03-14T06:07:15;9.20;99.90
38726;DHT22;24474;48.906;8.808;2023-03-14T06:09:43;9.20;99.90
38726;DHT22;24474;48.906;8.808;2023-03-14T06:12:10;9.20;99.90
38726;DHT22;24474;48.906;8.808;2023-03-14T06:14:37;9.20;99.90
38726;DHT22;24474;48.906;8.808;2023-03-14T06:17:04;9.20;99.90
38726;DHT22;24474;48.906;8.808;2023-03-14T06:19:31;9.20;99.90
38726;DHT22;24474;48.906;8.808;2023-03-14T06:21:58;9.30;99.90
38726;DHT22;24474;48.906;8.808;2023-03-14T06:24:25;9.20;99.90
38726;DHT22;24474;48.906;8.808;2023-03-14T06:26:50;9.30;99.90
38726;DHT22;24474;48.906;8.808;2023-03-14T06:29:17;9.20;99.90
38726;DHT22;24474;48.906;8.808;2023-03-14T06:31:44;9.20;99.90
38726;DHT22;24474;48.906;8.808;2023-03-14T06:34:12;9.20;99.90
38726;DHT22;24474;48.906;8.808;2023-03-14T06:36:38;9.20;99.90
38726;DHT22;24474;48.906;8.808;2023-03-14T06:39:04;9.20;99.90
38726;DHT22;24474;48.906;8.808;2023-03-14T06:41:31;9.30;99.90
38726;DHT22;24474;48.906;8.808;2023-03-14T06:44:08;9.30;99.90
38726;DHT22;24474;48.906;8.808;2023-03-14T06:46:33;9.30;99.90
38726;DHT22;24474;48.906;8.808;2023-03-14T06:48:59;9.30;99.90
38726;DHT22;24474;48.906;8.808;2023-03-14T06:51:25;9.30;99.90
38726;DHT22;24474;48.906;8.808;2023-03-14T06:53:51;9.30;99.90
38726;DHT22;24474;48.906;8.808;2023-03-14T06:56:18;9.40;99.90
38726;DHT22;24474;48.906;8.808;2023-03-14T06:58:45;9.50;99.90
38726;DHT22;24474;48.906;8.808;2023-03-14T07:01:24;9.60;99.90
38726;DHT22;24474;48.906;8.808;2023-03-14T07:03:51;9.70;99.90
38726;DHT22;24474;48.906;8.808;2023-03-14T07:06:18;9.80;99.90
38726;DHT22;24474;48.906;8.808;2023-03-14T07:08:45;9.90;99.90
38726;DHT22;24474;48.906;8.808;2023-03-14T07:11:12;10.00;99.90
38726;DHT22;24474;48.906;8.808;2023-03-14T07:13:40;10.10;99.90
38726;DHT22;24474;48.906;8.808;2023-03-14T07:16:06;10.10;99.90
38726;DHT22;24474;48.906;8.808;2023-03-14T07:18:42;10.20;99.90
38726;DHT22;24474;48.906;8.808;2023-03-14T07:21:12;10.30;99.90
38726;DHT22;24474;48.906;8.808;2023-03-14T07:23:39;10.30;99.90
38726;DHT22;24474;48.906;8.808;2023-03-14T07:26:06;10.30;99.90
38726;DHT22;24474;48.906;8.808;2023-03-14T07:28:33;10.40;99.90
38726;DHT22;24474;48.906;8.808;2023-03-14T07:31:00;10.50;99.90
38726;DHT22;24474;48.906;8.808;2023-03-14T07:33:26;10.60;99.90
38726;DHT22;24474;48.906;8.808;2023-03-14T07:35:52;10.60;99.90
38726;DHT22;24474;48.906;8.808;2023-03-14T07:38:18;10.70;99.90
38726;DHT22;24474;48.906;8.808;2023-03-14T07:40:44;10.70;99.90
38726;DHT22;24474;48.906;8.808;2023-03-14T07:43:10;10.80;99.90
38726;DHT22;24474;48.906;8.808;2023-03-14T07:45:36;10.90;99.90
38726;DHT22;24474;48.906;8.808;2023-03-14T07:48:06;11.00;99.90
38726;DHT22;24474;48.906;8.808;2023-03-14T07:50:32;11.10;99.90
38726;DHT22;24474;48.906;8.808;2023-03-14T07:52:58;11.20;99.90
38726;DHT22;24474;48.906;8.808;2023-03-14T07:55:25;11.30;99.90
38726;DHT22;24474;48.906;8.808;2023-03-14T07:57:52;11.40;99.90
38726;DHT22;24474;48.906;8.808;2023-03-14T08:00:19;11.50;99.90
38726;DHT22;24474;48.906;8.808;2023-03-14T08:02:46;11.50;99.90
38726;DHT22;24474;48.906;8.808;2023-03-14T08:05:12;11.60;99.90
38726;DHT22;24474;48.906;8.808;2023-03-14T08:07:39;11.70;99.90
38726;DHT22;24474;48.906;8.808;2023-03-14T08:10:07;11.80;99.90
38726;DHT22;24474;48.906;8.808;2023-03-14T08:12:32;11.90;99.90
38726;DHT22;24474;48.906;8.808;2023-03-14T08:14:59;12.00;99.90
38726;DHT22;24474;48.906;8.808;2023-03-14T08:17:25;11.90;99.90
38726;DHT22;24474;48.906;8.808;2023-03-14T08:19:52;11.90;99.90
38726;DHT22;24474;48.906;8.808;2023-03-14T08:22:19;11.90;99.90
38726;DHT22;24474;48.906;8.808;2023-03-14T08:24:46;11.80;99.90
38726;DHT22;24474;48.906;8.808;2023-03-14T08:27:13;11.70;99.90
38726;DHT22;24474;48.906;8.808;2023-03-14T08:29:41;11.70;99.90
38726;DHT22;24474;48.906;8.808;2023-03-14T08:32:08;11.70;99.90
38726;DHT22;24474;48.906;8.808;2023-03-14T08:34:34;11.60;99.90
38726;DHT22;24474;48.906;8.808;2023-03-14T08:37:01;11.60;99.90
38726;DHT22;24474;48.906;8.808;2023-03-14T08:39:28;11.50;99.90
38726;DHT22;24474;48.906;8.808;2023-03-14T08:41:53;11.50;99.90
38726;DHT22;24474;48.906;8.808;2023-03-14T08:44:20;11.50;99.90
38726;DHT22;24474;48.906;8.808;2023-03-14T08:46:46;11.50;99.90
38726;DHT22;24474;48.906;8.808;2023-03-14T08:49:13;11.50;99.90
38726;DHT22;24474;48.906;8.808;2023-03-14T08:51:41;11.50;99.90
38726;DHT22;24474;48.906;8.808;2023-03-14T08:54:10;11.50;99.90
38726;DHT22;24474;48.906;8.808;2023-03-14T08:56:37;11.40;99.90
38726;DHT22;24474;48.906;8.808;2023-03-14T08:59:06;11.40;99.90
38726;DHT22;24474;48.906;8.808;2023-03-14T09:01:34;11.40;99.90
38726;DHT22;24474;48.906;8.808;2023-03-14T09:04:00;11.40;99.90
38726;DHT22;24474;48.906;8.808;2023-03-14T09:06:27;11.30;99.90
38726;DHT22;24474;48.906;8.808;2023-03-14T09:08:54;11.40;99.90
38726;DHT22;24474;48.906;8.808;2023-03-14T09:11:19;11.50;99.90
38726;DHT22;24474;48.906;8.808;2023-03-14T09:13:46;11.50;99.90
38726;DHT22;24474;48.906;8.808;2023-03-14T09:16:13;11.50;99.90
38726;DHT22;24474;48.906;8.808;2023-03-14T09:18:39;11.50;99.90
38726;DHT22;24474;48.906;8.808;2023-03-14T09:21:06;11.50;99.90
38726;DHT22;24474;48.906;8.808;2023-03-14T09:23:33;11.40;99.90
38726;DHT22;24474;48.906;8.808;2023-03-14T09:26:01;11.50;99.90
38726;DHT22;24474;48.906;8.808;2023-03-14T09:28:28;11.40;99.90
38726;DHT22;24474;48.906;8.808;2023-03-14T09:30:55;11.40;99.90
38726;DHT22;24474;48.906;8.808;2023-03-14T09:33:21;11.50;99.90
38726;DHT22;24474;48.906;8.808;2023-03-14T09:35:50;11.50;99.90
38726;DHT22;24474;48.906;8.808;2023-03-14T09:38:15;11.40;99.90
38726;DHT22;24474;48.906;8.808;2023-03-14T09:40:42;11.40;99.90
38726;DHT22;24474;48.906;8.808;2023-03-14T09:43:14;11.50;99.90
38726;DHT22;24474;48.906;8.808;2023-03-14T09:45:44;11.50;99.90
38726;DHT22;24474;48.906;8.808;2023-03-14T09:48:20;11.60;99.90
38726;DHT22;24474;48.906;8.808;2023-03-14T09:50:53;11.70;99.90
38726;DHT22;24474;48.906;8.808;2023-03-14T09:53:28;11.70;99.90
38726;DHT22;24474;48.906;8.808;2023-03-14T09:56:03;11.80;99.90
38726;DHT22;24474;48.906;8.808;2023-03-14T09:58:31;11.90;99.90
38726;DHT22;24474;48.906;8.808;2023-03-14T10:00:58;12.00;99.90
38726;DHT22;24474;48.906;8.808;2023-03-14T10:03:34;12.00;99.90
38726;DHT22;24474;48.906;8.808;2023-03-14T10:06:01;12.10;99.90
38726;DHT22;24474;48.906;8.808;2023-03-14T10:08:30;12.10;99.90
38726;DHT22;24474;48.906;8.808;2023-03-14T10:10:57;12.10;99.90
38726;DHT22;24474;48.906;8.808;2023-03-14T10:13:26;12.10;99.90
38726;DHT22;24474;48.906;8.808;2023-03-14T10:16:03;12.10;99.90
38726;DHT22;24474;48.906;8.808;2023-03-14T10:18:33;12.10;99.90
38726;DHT22;24474;48.906;8.808;2023-03-14T10:21:26;12.10;99.90
38726;DHT22;24474;48.906;8.808;2023-03-14T10:23:53;12.00;99.90
38726;DHT22;24474;48.906;8.808;2023-03-14T10:26:27;12.00;99.90
38726;DHT22;24474;48.906;8.808;2023-03-14T10:29:10;11.90;99.90
38726;DHT22;24474;48.906;8.808;2023-03-14T10:31:59;11.80;99.90
38726;DHT22;24474;48.906;8.808;2023-03-14T10:34:29;11.80;99.90
38726;DHT22;24474;48.906;8.808;2023-03-14T10:37:04;11.70;99.90
38726;DHT22;24474;48.906;8.808;2023-03-14T10:39:46;11.70;99.90
38726;DHT22;24474;48.906;8.808;2023-03-14T10:42:39;11.60;99.90
38726;DHT22;24474;48.906;8.808;2023-03-14T10:45:31;11.60;99.90
38726;DHT22;24474;48.906;8.808;2023-03-14T10:48:13;11.60;99.90
38726;DHT22;24474;48.906;8.808;2023-03-14T10:53:57;11.50;99.90
38726;DHT22;24474;48.906;8.808;2023-03-14T10:56:34;11.60;99.90
38726;DHT22;24474;48.906;8.808;2023-03-14T10:59:00;11.40;99.90
38726;DHT22;24474;48.906;8.808;2023-03-14T11:02:03;11.40;99.90
38726;DHT22;24474;48.906;8.808;2023-03-14T11:04:59;11.40;99.90
38726;DHT22;24474;48.906;8.808;2023-03-14T11:07:33;11.30;99.90
38726;DHT22;24474;48.906;8.808;2023-03-14T11:13:25;11.30;99.90
38726;DHT22;24474;48.906;8.808;2023-03-14T11:16:27;11.30;99.90
38726;DHT22;24474;48.906;8.808;2023-03-14T11:19:38;11.20;99.90
38726;DHT22;24474;48.906;8.808;2023-03-14T11:22:44;11.10;99.90
38726;DHT22;24474;48.906;8.808;2023-03-14T11:30:55;11.00;99.90
38726;DHT22;24474;48.906;8.808;2023-03-14T11:33:52;11.10;99.90
38726;DHT22;24474;48.906;8.808;2023-03-14T11:36:27;11.00;99.90
38726;DHT22;24474;48.906;8.808;2023-03-14T11:38:58;11.00;99.90
38726;DHT22;24474;48.906;8.808;2023-03-14T11:41:38;10.90;99.90
38726;DHT22;24474;48.906;8.808;2023-03-14T11:50:05;10.70;99.90
38726;DHT22;24474;48.906;8.808;2023-03-14T11:52:38;10.70;99.90
38726;DHT22;24474;48.906;8.808;2023-03-14T11:55:24;10.60;99.90
38726;DHT22;24474;48.906;8.808;2023-03-14T11:57:56;10.60;99.90
38726;DHT22;24474;48.906;8.808;2023-03-14T12:00:26;10.50;99.90
38726;DHT22;24474;48.906;8.808;2023-03-14T12:08:49;10.20;99.90
38726;DHT22;24474;48.906;8.808;2023-03-14T12:13:52;10.00;99.90
38726;DHT22;24474;48.906;8.808;2023-03-14T12:16:38;9.80;99.90
38726;DHT22;24474;48.906;8.808;2023-03-14T12:19:24;9.70;99.90
38726;DHT22;24474;48.906;8.808;2023-03-14T12:24:38;9.40;99.90
38726;DHT22;24474;48.906;8.808;2023-03-14T12:27:12;9.20;99.90
38726;DHT22;24474;48.906;8.808;2023-03-14T12:29:59;9.00;99.90
38726;DHT22;24474;48.906;8.808;2023-03-14T12:32:28;8.90;99.90
38726;DHT22;24474;48.906;8.808;2023-03-14T12:34:55;9.00;99.90
38726;DHT22;24474;48.906;8.808;2023-03-14T12:37:37;9.00;99.90
38726;DHT22;24474;48.906;8.808;2023-03-14T12:40:21;9.10;99.90
38726;DHT22;24474;48.906;8.808;2023-03-14T12:43:03;9.20;99.90
38726;DHT22;24474;48.906;8.808;2023-03-14T12:45:35;9.20;99.90
38726;DHT22;24474;48.906;8.808;2023-03-14T12:48:24;9.30;99.90
38726;DHT22;24474;48.906;8.808;2023-03-14T12:51:04;9.50;99.90
38726;DHT22;24474;48.906;8.808;2023-03-14T12:59:30;9.70;99.90
38726;DHT22;24474;48.906;8.808;2023-03-14T13:10:23;9.40;99.90
38726;DHT22;24474;48.906;8.808;2023-03-14T13:13:20;9.30;99.90
38726;DHT22;24474;48.906;8.808;2023-03-14T13:15:57;9.30;99.90
38726;DHT22;24474;48.906;8.808;2023-03-14T13:18:50;9.30;99.90
38726;DHT22;24474;48.906;8.808;2023-03-14T13:21:35;9.30;99.90
38726;DHT22;24474;48.906;8.808;2023-03-14T13:24:20;9.30;99.90
38726;DHT22;24474;48.906;8.808;2023-03-14T13:26:49;9.30;99.90
38726;DHT22;24474;48.906;8.808;2023-03-14T13:29:30;9.40;99.90
38726;DHT22;24474;48.906;8.808;2023-03-14T13:32:02;9.40;99.90
38726;DHT22;24474;48.906;8.808;2023-03-14T13:34:33;9.50;99.90
38726;DHT22;24474;48.906;8.808;2023-03-14T13:37:00;9.50;99.90
38726;DHT22;24474;48.906;8.808;2023-03-14T13:39:27;9.40;99.90
38726;DHT22;24474;48.906;8.808;2023-03-14T13:41:58;9.30;99.90
38726;DHT22;24474;48.906;8.808;2023-03-14T13:44:46;9.30;99.90
38726;DHT22;24474;48.906;8.808;2023-03-14T13:47:20;9.30;99.90
38726;DHT22;24474;48.906;8.808;2023-03-14T13:49:49;9.30;99.90
38726;DHT22;24474;48.906;8.808;2023-03-14T13:52:42;9.30;99.90
38726;DHT22;24474;48.906;8.808;2023-03-14T13:55:17;9.30;99.90
38726;DHT22;24474;48.906;8.808;2023-03-14T13:57:48;9.30;99.90
38726;DHT22;24474;48.906;8.808;2023-03-14T14:00:20;9.30;99.90
38726;DHT22;24474;48.906;8.808;2023-03-14T14:02:48;9.30;99.90
38726;DHT22;24474;48.906;8.808;2023-03-14T14:05:15;9.30;99.90
38726;DHT22;24474;48.906;8.808;2023-03-14T14:07:45;9.20;99.90
38726;DHT22;24474;48.906;8.808;2023-03-14T14:10:13;9.10;99.90
38726;DHT22;24474;48.906;8.808;2023-03-14T14:12:50;9.00;99.90
38726;DHT22;24474;48.906;8.808;2023-03-14T14:15:26;9.00;99.90
38726;DHT22;24474;48.906;8.808;2023-03-14T14:17:58;9.00;99.90
38726;DHT22;24474;48.906;8.808;2023-03-14T14:20:39;9.00;99.90
38726;DHT22;24474;48.906;8.808;2023-03-14T14:23:14;9.00;99.90
38726;DHT22;24474;48.906;8.808;2023-03-14T14:25:43;8.90;99.90
38726;DHT22;24474;48.906;8.808;2023-03-14T14:28:39;8.90;99.90
38726;DHT22;24474;48.906;8.808;2023-03-14T14:34:02;9.00;99.90
38726;DHT22;24474;48.906;8.808;2023-03-14T14:36:40;9.10;99.90
38726;DHT22;24474;48.906;8.808;2023-03-14T14:39:21;9.20;99.90
38726;DHT22;24474;48.906;8.808;2023-03-14T14:41:52;9.20;99.90
38726;DHT22;24474;48.906;8.808;2023-03-14T14:44:30;9.30;99.90
38726;DHT22;24474;48.906;8.808;2023-03-14T14:46:58;9.30;99.90
38726;DHT22;24474;48.906;8.808;2023-03-14T14:49:30;9.20;99.90
38726;DHT22;24474;48.906;8.808;2023-03-14T14:52:04;9.20;99.90
38726;DHT22;24474;48.906;8.808;2023-03-14T14:57:36;9.30;99.90
38726;DHT22;24474;48.906;8.808;2023-03-14T15:00:26;9.20;99.80
38726;DHT22;24474;48.906;8.808;2023-03-14T15:03:00;9.20;99.90
38726;DHT22;24474;48.906;8.808;2023-03-14T15:05:28;9.20;99.90
38726;DHT22;24474;48.906;8.808;2023-03-14T15:07:57;9.10;99.90
38726;DHT22;24474;48.906;8.808;2023-03-14T15:10:25;9.10;99.90
38726;DHT22;24474;48.906;8.808;2023-03-14T15:12:51;9.10;99.90
38726;DHT22;24474;48.906;8.808;2023-03-14T15:15:18;9.10;99.90
38726;DHT22;24474;48.906;8.808;2023-03-14T15:17:45;9.10;99.90
38726;DHT22;24474;48.906;8.808;2023-03-14T15:20:15;9.10;99.90
38726;DHT22;24474;48.906;8.808;2023-03-14T15:22:42;9.10;99.90
38726;DHT22;24474;48.906;8.808;2023-03-14T15:25:09;9.10;99.90
38726;DHT22;24474;48.906;8.808;2023-03-14T15:27:37;9.10;99.90
38726;DHT22;24474;48.906;8.808;2023-03-14T15:30:15;9.00;99.90
38726;DHT22;24474;48.906;8.808;2023-03-14T15:32:42;8.90;99.90
38726;DHT22;24474;48.906;8.808;2023-03-14T15:35:08;8.90;99.90
38726;DHT22;24474;48.906;8.808;2023-03-14T15:37:35;8.90;99.90
38726;DHT22;24474;48.906;8.808;2023-03-14T15:40:03;8.80;99.90
38726;DHT22;24474;48.906;8.808;2023-03-14T15:42:44;8.80;99.90
38726;DHT22;24474;48.906;8.808;2023-03-14T15:45:11;8.80;99.90
38726;DHT22;24474;48.906;8.808;2023-03-14T15:47:38;8.80;99.90
38726;DHT22;24474;48.906;8.808;2023-03-14T15:50:05;8.80;99.90
38726;DHT22;24474;48.906;8.808;2023-03-14T15:52:36;8.90;99.90
38726;DHT22;24474;48.906;8.808;2023-03-14T15:55:05;8.90;99.90
38726;DHT22;24474;48.906;8.808;2023-03-14T15:57:31;8.90;99.90
38726;DHT22;24474;48.906;8.808;2023-03-14T15:59:58;8.90;99.90
38726;DHT22;24474;48.906;8.808;2023-03-14T16:02:24;8.90;99.90
38726;DHT22;24474;48.906;8.808;2023-03-14T16:04:51;8.80;99.90
38726;DHT22;24474;48.906;8.808;2023-03-14T16:07:18;8.80;99.90
38726;DHT22;24474;48.906;8.808;2023-03-14T16:09:45;8.80;99.90
38726;DHT22;24474;48.906;8.808;2023-03-14T16:12:11;8.80;99.90
38726;DHT22;24474;48.906;8.808;2023-03-14T16:14:38;8.70;99.90
38726;DHT22;24474;48.906;8.808;2023-03-14T16:17:09;8.70;99.90
38726;DHT22;24474;48.906;8.808;2023-03-14T16:19:36;8.60;99.90
38726;DHT22;24474;48.906;8.808;2023-03-14T16:22:02;8.60;99.90
38726;DHT22;24474;48.906;8.808;2023-03-14T16:24:28;8.60;99.90
38726;DHT22;24474;48.906;8.808;2023-03-14T16:26:54;8.60;99.90
38726;DHT22;24474;48.906;8.808;2023-03-14T16:29:20;8.50;99.90
38726;DHT22;24474;48.906;8.808;2023-03-14T16:31:46;8.50;99.90
38726;DHT22;24474;48.906;8.808;2023-03-14T16:34:11;8.50;99.90
38726;DHT22;24474;48.906;8.808;2023-03-14T16:36:39;8.40;99.90
38726;DHT22;24474;48.906;8.808;2023-03-14T16:39:06;8.30;99.90
38726;DHT22;24474;48.906;8.808;2023-03-14T16:41:32;8.30;99.90
38726;DHT22;24474;48.906;8.808;2023-03-14T16:44:01;8.20;99.90
38726;DHT22;24474;48.906;8.808;2023-03-14T16:46:28;8.00;99.90
38726;DHT22;24474;48.906;8.808;2023-03-14T16:48:54;7.90;99.90
38726;DHT22;24474;48.906;8.808;2023-03-14T16:51:22;7.80;99.90
38726;DHT22;24474;48.906;8.808;2023-03-14T16:53:49;7.70;99.90